sensor_id;sensor_type;location;lat;lon;timestamp;temperature;humidity
14755;DHT22;7469;50.906;6.952;2023-04-25T00:01:48;8.30;99.90
14755;DHT22;7469;50.906;6.952;2023-04-25T00:04:17;8.30;99.90
14755;DHT22;7469;50.906;6.952;2023-04-25T00:06:46;8.30;99.90
14755;DHT22;7469;50.906;6.952;2023-04-25T00:09:14;8.30;99.90
14755;DHT22;7469;50.906;6.952;2023-04-25T00:11:42;8.30;99.90
14755;DHT22;7469;50.906;6.952;2023-04-25T00:14:10;8.30;99.90
14755;DHT22;7469;50.906;6.952;2023-04-25T00:16:38;8.30;99.90
14755;DHT22;7469;50.906;6.952;2023-04-25T00:19:09;8.30;99.90
14755;DHT22;7469;50.906;6.952;2023-04-25T00:21:37;8.30;99.90
14755;DHT22;7469;50.906;6.952;2023-04-25T00:24:07;8.20;99.90
14755;DHT22;7469;50.906;6.952;2023-04-25T00:26:35;8.20;99.90
14755;DHT22;7469;50.906;6.952;2023-04-25T00:29:03;8.20;99.90
14755;DHT22;7469;50.906;6.952;2023-04-25T00:31:31;8.20;99.90
14755;DHT22;7469;50.906;6.952;2023-04-25T00:34:00;8.20;99.90
14755;DHT22;7469;50.906;6.952;2023-04-25T00:36:29;8.20;99.90
14755;DHT22;7469;50.906;6.952;2023-04-25T00:38:57;8.10;99.90
14755;DHT22;7469;50.906;6.952;2023-04-25T00:41:25;8.10;99.90
14755;DHT22;7469;50.906;6.952;2023-04-25T00:43:54;8.00;99.90
14755;DHT22;7469;50.906;6.952;2023-04-25T00:46:23;8.00;99.90
14755;DHT22;7469;50.906;6.952;2023-04-25T00:48:51;7.90;99.90
14755;DHT22;7469;50.906;6.952;2023-04-25T00:51:21;7.90;99.90
14755;DHT22;7469;50.906;6.952;2023-04-25T00:53:50;7.80;99.90
14755;DHT22;7469;50.906;6.952;2023-04-25T00:56:19;7.80;99.90
14755;DHT22;7469;50.906;6.952;2023-04-25T00:58:49;7.70;99.90
14755;DHT22;7469;50.906;6.952;2023-04-25T01:01:18;7.70;99.90
14755;DHT22;7469;50.906;6.952;2023-04-25T01:03:47;7.60;99.90
14755;DHT22;7469;50.906;6.952;2023-04-25T01:06:17;7.60;99.90
14755;DHT22;7469;50.906;6.952;2023-04-25T01:08:45;7.50;99.90
14755;DHT22;7469;50.906;6.952;2023-04-25T01:11:15;7.50;99.90
14755;DHT22;7469;50.906;6.952;2023-04-25T01:13:43;7.40;99.90
14755;DHT22;7469;50.906;6.952;2023-04-25T01:16:11;7.40;99.90
14755;DHT22;7469;50.906;6.952;2023-04-25T01:18:39;7.40;99.90
14755;DHT22;7469;50.906;6.952;2023-04-25T01:21:10;7.30;99.90
14755;DHT22;7469;50.906;6.952;2023-04-25T01:23:39;7.30;99.90
14755;DHT22;7469;50.906;6.952;2023-04-25T01:26:09;7.30;99.90
14755;DHT22;7469;50.906;6.952;2023-04-25T01:28:38;7.20;99.90
14755;DHT22;7469;50.906;6.952;2023-04-25T01:31:08;7.20;99.90
14755;DHT22;7469;50.906;6.952;2023-04-25T01:33:37;7.10;99.90
14755;DHT22;7469;50.906;6.952;2023-04-25T01:36:05;7.10;99.90
14755;DHT22;7469;50.906;6.952;2023-04-25T01:38:35;7.10;99.90
14755;DHT22;7469;50.906;6.952;2023-04-25T01:41:03;7.00;99.90
14755;DHT22;7469;50.906;6.952;2023-04-25T01:43:31;7.00;99.90
14755;DHT22;7469;50.906;6.952;2023-04-25T01:45:59;7.00;99.90
14755;DHT22;7469;50.906;6.952;2023-04-25T01:48:27;6.90;99.90
14755;DHT22;7469;50.906;6.952;2023-04-25T01:50:55;6.90;99.90
14755;DHT22;7469;50.906;6.952;2023-04-25T01:53:24;6.90;99.90
14755;DHT22;7469;50.906;6.952;2023-04-25T01:55:54;6.90;99.90
14755;DHT22;7469;50.906;6.952;2023-04-25T01:58:22;6.80;99.90
14755;DHT22;7469;50.906;6.952;2023-04-25T02:00:51;6.80;99.90
14755;DHT22;7469;50.906;6.952;2023-04-25T02:03:19;6.80;99.90
14755;DHT22;7469;50.906;6.952;2023-04-25T02:05:47;6.80;99.90
14755;DHT22;7469;50.906;6.952;2023-04-25T02:08:17;6.70;99.90
14755;DHT22;7469;50.906;6.952;2023-04-25T02:10:45;6.70;99.90
14755;DHT22;7469;50.906;6.952;2023-04-25T02:13:14;6.70;99.90
14755;DHT22;7469;50.906;6.952;2023-04-25T02:15:42;6.70;99.90
14755;DHT22;7469;50.906;6.952;2023-04-25T02:18:10;6.60;99.90
14755;DHT22;7469;50.906;6.952;2023-04-25T02:20:38;6.60;99.90
14755;DHT22;7469;50.906;6.952;2023-04-25T02:23:06;6.60;99.90
14755;DHT22;7469;50.906;6.952;2023-04-25T02:25:34;6.60;99.90
14755;DHT22;7469;50.906;6.952;2023-04-25T02:28:02;6.60;99.90
14755;DHT22;7469;50.906;6.952;2023-04-25T02:30:32;6.60;99.90
14755;DHT22;7469;50.906;6.952;2023-04-25T02:33:00;6.60;99.90
14755;DHT22;7469;50.906;6.952;2023-04-25T02:35:28;6.60;99.90
14755;DHT22;7469;50.906;6.952;2023-04-25T02:37:56;6.60;99.90
14755;DHT22;7469;50.906;6.952;2023-04-25T02:40:23;6.70;99.90
14755;DHT22;7469;50.906;6.952;2023-04-25T02:42:51;6.70;99.90
14755;DHT22;7469;50.906;6.952;2023-04-25T02:45:19;6.70;99.90
14755;DHT22;7469;50.906;6.952;2023-04-25T02:47:49;6.80;99.90
14755;DHT22;7469;50.906;6.952;2023-04-25T02:50:17;6.80;99.90
14755;DHT22;7469;50.906;6.952;2023-04-25T02:52:46;6.80;99.90
14755;DHT22;7469;50.906;6.952;2023-04-25T02:55:14;6.80;99.90
14755;DHT22;7469;50.906;6.952;2023-04-25T02:57:42;6.80;99.90
14755;DHT22;7469;50.906;6.952;2023-04-25T03:00:11;6.80;99.90
14755;DHT22;7469;50.906;6.952;2023-04-25T03:02:40;6.80;99.90
14755;DHT22;7469;50.906;6.952;2023-04-25T03:05:10;6.90;99.90
14755;DHT22;7469;50.906;6.952;2023-04-25T03:07:38;6.90;99.90
14755;DHT22;7469;50.906;6.952;2023-04-25T03:10:07;6.90;99.90
14755;DHT22;7469;50.906;6.952;2023-04-25T03:12:35;6.90;99.90
14755;DHT22;7469;50.906;6.952;2023-04-25T03:15:04;6.90;99.90
14755;DHT22;7469;50.906;6.952;2023-04-25T03:17:32;6.90;99.90
14755;DHT22;7469;50.906;6.952;2023-04-25T03:20:01;6.90;99.90
14755;DHT22;7469;50.906;6.952;2023-04-25T03:22:32;7.00;99.90
14755;DHT22;7469;50.906;6.952;2023-04-25T03:25:00;6.90;99.90
14755;DHT22;7469;50.906;6.952;2023-04-25T03:27:28;6.90;99.90
14755;DHT22;7469;50.906;6.952;2023-04-25T03:29:55;7.00;99.90
14755;DHT22;7469;50.906;6.952;2023-04-25T03:32:24;6.90;99.90
14755;DHT22;7469;50.906;6.952;2023-04-25T03:34:52;7.00;99.90
14755;DHT22;7469;50.906;6.952;2023-04-25T03:37:20;6.90;99.90
14755;DHT22;7469;50.906;6.952;2023-04-25T03:39:50;7.00;99.90
14755;DHT22;7469;50.906;6.952;2023-04-25T03:42:18;7.00;99.90
14755;DHT22;7469;50.906;6.952;2023-04-25T03:44:46;7.00;99.90
14755;DHT22;7469;50.906;6.952;2023-04-25T03:47:14;7.00;99.90
14755;DHT22;7469;50.906;6.952;2023-04-25T03:49:42;7.00;99.90
14755;DHT22;7469;50.906;6.952;2023-04-25T03:52:11;7.00;99.90
14755;DHT22;7469;50.906;6.952;2023-04-25T03:54:39;7.10;99.90
14755;DHT22;7469;50.906;6.952;2023-04-25T03:57:08;7.10;99.90
14755;DHT22;7469;50.906;6.952;2023-04-25T03:59:37;7.10;99.90
14755;DHT22;7469;50.906;6.952;2023-04-25T04:02:04;7.10;99.90
14755;DHT22;7469;50.906;6.952;2023-04-25T04:04:33;7.10;99.90
14755;DHT22;7469;50.906;6.952;2023-04-25T04:07:01;7.10;99.90
14755;DHT22;7469;50.906;6.952;2023-04-25T04:09:29;7.10;99.90
14755;DHT22;7469;50.906;6.952;2023-04-25T04:11:57;7.10;99.90
14755;DHT22;7469;50.906;6.952;2023-04-25T04:14:26;7.10;99.90
14755;DHT22;7469;50.906;6.952;2023-04-25T04:16:56;7.10;99.90
14755;DHT22;7469;50.906;6.952;2023-04-25T04:19:24;7.10;99.90
14755;DHT22;7469;50.906;6.952;2023-04-25T04:21:52;7.10;99.90
14755;DHT22;7469;50.906;6.952;2023-04-25T04:24:20;7.10;99.90
14755;DHT22;7469;50.906;6.952;2023-04-25T04:26:48;7.10;99.90
14755;DHT22;7469;50.906;6.952;2023-04-25T04:29:17;7.20;99.90
14755;DHT22;7469;50.906;6.952;2023-04-25T04:31:50;7.20;99.90
14755;DHT22;7469;50.906;6.952;2023-04-25T04:34:19;7.20;99.90
14755;DHT22;7469;50.906;6.952;2023-04-25T04:36:47;7.20;99.90
14755;DHT22;7469;50.906;6.952;2023-04-25T04:39:15;7.20;99.90
14755;DHT22;7469;50.906;6.952;2023-04-25T04:41:43;7.20;99.90
14755;DHT22;7469;50.906;6.952;2023-04-25T04:44:12;7.20;99.90
14755;DHT22;7469;50.906;6.952;2023-04-25T04:46:41;7.20;99.90
14755;DHT22;7469;50.906;6.952;2023-04-25T04:49:11;7.20;99.90
14755;DHT22;7469;50.906;6.952;2023-04-25T04:51:40;7.20;99.90
14755;DHT22;7469;50.906;6.952;2023-04-25T04:54:11;7.30;99.90
14755;DHT22;7469;50.906;6.952;2023-04-25T04:56:39;7.30;99.90
14755;DHT22;7469;50.906;6.952;2023-04-25T04:59:08;7.30;99.90
14755;DHT22;7469;50.906;6.952;2023-04-25T05:01:36;7.30;99.90
14755;DHT22;7469;50.906;6.952;2023-04-25T05:04:04;7.30;99.90
14755;DHT22;7469;50.906;6.952;2023-04-25T05:06:35;7.40;99.90
14755;DHT22;7469;50.906;6.952;2023-04-25T05:09:03;7.40;99.90
14755;DHT22;7469;50.906;6.952;2023-04-25T05:11:31;7.40;99.90
14755;DHT22;7469;50.906;6.952;2023-04-25T05:13:59;7.50;99.90
14755;DHT22;7469;50.906;6.952;2023-04-25T05:16:27;7.50;99.90
14755;DHT22;7469;50.906;6.952;2023-04-25T05:18:54;7.60;99.90
14755;DHT22;7469;50.906;6.952;2023-04-25T05:21:23;7.60;99.90
14755;DHT22;7469;50.906;6.952;2023-04-25T05:23:53;7.60;99.90
14755;DHT22;7469;50.906;6.952;2023-04-25T05:26:22;7.70;99.90
14755;DHT22;7469;50.906;6.952;2023-04-25T05:28:50;7.70;99.90
14755;DHT22;7469;50.906;6.952;2023-04-25T05:31:18;7.70;99.90
14755;DHT22;7469;50.906;6.952;2023-04-25T05:33:46;7.80;99.90
14755;DHT22;7469;50.906;6.952;2023-04-25T05:36:14;7.80;99.90
14755;DHT22;7469;50.906;6.952;2023-04-25T05:38:44;7.90;99.90
14755;DHT22;7469;50.906;6.952;2023-04-25T05:41:13;7.90;99.90
14755;DHT22;7469;50.906;6.952;2023-04-25T05:43:41;8.00;99.90
14755;DHT22;7469;50.906;6.952;2023-04-25T05:46:14;8.00;99.90
14755;DHT22;7469;50.906;6.952;2023-04-25T05:48:42;8.00;99.90
14755;DHT22;7469;50.906;6.952;2023-04-25T05:51:10;8.00;99.90
14755;DHT22;7469;50.906;6.952;2023-04-25T05:53:37;8.10;99.90
14755;DHT22;7469;50.906;6.952;2023-04-25T05:56:05;8.10;99.90
14755;DHT22;7469;50.906;6.952;2023-04-25T05:58:35;8.10;99.90
14755;DHT22;7469;50.906;6.952;2023-04-25T06:01:03;8.20;99.90
14755;DHT22;7469;50.906;6.952;2023-04-25T06:03:31;8.20;99.90
14755;DHT22;7469;50.906;6.952;2023-04-25T06:05:59;8.30;99.90
14755;DHT22;7469;50.906;6.952;2023-04-25T06:08:28;8.30;99.90
14755;DHT22;7469;50.906;6.952;2023-04-25T06:10:56;8.40;99.90
14755;DHT22;7469;50.906;6.952;2023-04-25T06:13:24;8.50;99.90
14755;DHT22;7469;50.906;6.952;2023-04-25T06:15:53;8.60;99.90
14755;DHT22;7469;50.906;6.952;2023-04-25T06:18:21;8.60;99.90
14755;DHT22;7469;50.906;6.952;2023-04-25T06:20:49;8.70;99.90
14755;DHT22;7469;50.906;6.952;2023-04-25T06:23:17;8.90;99.90
14755;DHT22;7469;50.906;6.952;2023-04-25T06:25:45;9.00;99.90
14755;DHT22;7469;50.906;6.952;2023-04-25T06:28:13;9.20;99.90
14755;DHT22;7469;50.906;6.952;2023-04-25T06:30:40;9.40;99.90
14755;DHT22;7469;50.906;6.952;2023-04-25T06:33:10;9.50;99.90
14755;DHT22;7469;50.906;6.952;2023-04-25T06:35:38;9.60;99.90
14755;DHT22;7469;50.906;6.952;2023-04-25T06:38:06;9.70;99.90
14755;DHT22;7469;50.906;6.952;2023-04-25T06:40:34;9.80;99.90
14755;DHT22;7469;50.906;6.952;2023-04-25T06:43:01;9.90;99.90
14755;DHT22;7469;50.906;6.952;2023-04-25T06:45:29;10.00;99.90
14755;DHT22;7469;50.906;6.952;2023-04-25T06:47:57;10.10;99.90
14755;DHT22;7469;50.906;6.952;2023-04-25T06:50:27;10.20;99.90
14755;DHT22;7469;50.906;6.952;2023-04-25T06:52:56;10.30;99.90
14755;DHT22;7469;50.906;6.952;2023-04-25T06:55:24;10.40;99.90
14755;DHT22;7469;50.906;6.952;2023-04-25T06:57:52;10.40;99.90
14755;DHT22;7469;50.906;6.952;2023-04-25T07:00:20;10.50;99.90
14755;DHT22;7469;50.906;6.952;2023-04-25T07:02:48;10.50;99.90
14755;DHT22;7469;50.906;6.952;2023-04-25T07:05:17;10.70;99.90
14755;DHT22;7469;50.906;6.952;2023-04-25T07:07:46;10.80;99.90
14755;DHT22;7469;50.906;6.952;2023-04-25T07:10:14;10.90;99.90
14755;DHT22;7469;50.906;6.952;2023-04-25T07:12:42;11.00;99.90
14755;DHT22;7469;50.906;6.952;2023-04-25T07:15:10;11.10;99.90
14755;DHT22;7469;50.906;6.952;2023-04-25T07:17:38;11.20;99.90
14755;DHT22;7469;50.906;6.952;2023-04-25T07:20:07;11.40;99.90
14755;DHT22;7469;50.906;6.952;2023-04-25T07:22:35;11.50;99.90
14755;DHT22;7469;50.906;6.952;2023-04-25T07:25:06;11.60;99.90
14755;DHT22;7469;50.906;6.952;2023-04-25T07:27:35;11.70;99.90
14755;DHT22;7469;50.906;6.952;2023-04-25T07:30:04;11.80;99.90
14755;DHT22;7469;50.906;6.952;2023-04-25T07:32:32;11.80;99.90
14755;DHT22;7469;50.906;6.952;2023-04-25T07:35:00;11.80;99.90
14755;DHT22;7469;50.906;6.952;2023-04-25T07:37:31;11.90;99.90
14755;DHT22;7469;50.906;6.952;2023-04-25T07:39:58;11.90;99.90
14755;DHT22;7469;50.906;6.952;2023-04-25T07:42:29;11.90;99.90
14755;DHT22;7469;50.906;6.952;2023-04-25T07:44:57;11.90;99.90
14755;DHT22;7469;50.906;6.952;2023-04-25T07:47:25;11.80;99.90
14755;DHT22;7469;50.906;6.952;2023-04-25T07:49:53;11.80;99.90
14755;DHT22;7469;50.906;6.952;2023-04-25T07:52:21;11.90;99.90
14755;DHT22;7469;50.906;6.952;2023-04-25T07:54:49;12.10;99.90
14755;DHT22;7469;50.906;6.952;2023-04-25T07:57:17;12.30;99.90
14755;DHT22;7469;50.906;6.952;2023-04-25T07:59:47;12.60;99.90
14755;DHT22;7469;50.906;6.952;2023-04-25T08:02:15;12.90;99.90
14755;DHT22;7469;50.906;6.952;2023-04-25T08:04:43;13.10;99.90
14755;DHT22;7469;50.906;6.952;2023-04-25T08:07:11;13.40;99.90
14755;DHT22;7469;50.906;6.952;2023-04-25T08:09:39;13.50;99.90
14755;DHT22;7469;50.906;6.952;2023-04-25T08:12:07;13.70;99.90
14755;DHT22;7469;50.906;6.952;2023-04-25T08:14:35;13.90;99.90
14755;DHT22;7469;50.906;6.952;2023-04-25T08:17:05;14.00;99.90
14755;DHT22;7469;50.906;6.952;2023-04-25T08:19:33;14.20;99.90
14755;DHT22;7469;50.906;6.952;2023-04-25T08:22:01;14.20;99.90
14755;DHT22;7469;50.906;6.952;2023-04-25T08:24:29;14.30;99.90
14755;DHT22;7469;50.906;6.952;2023-04-25T08:26:57;14.40;99.90
14755;DHT22;7469;50.906;6.952;2023-04-25T08:29:25;14.50;99.90
14755;DHT22;7469;50.906;6.952;2023-04-25T08:31:55;14.60;99.90
14755;DHT22;7469;50.906;6.952;2023-04-25T08:34:24;14.60;99.90
14755;DHT22;7469;50.906;6.952;2023-04-25T08:36:53;14.70;99.90
14755;DHT22;7469;50.906;6.952;2023-04-25T08:39:21;14.70;99.90
14755;DHT22;7469;50.906;6.952;2023-04-25T08:41:50;14.80;99.90
14755;DHT22;7469;50.906;6.952;2023-04-25T08:44:19;14.90;99.90
14755;DHT22;7469;50.906;6.952;2023-04-25T08:46:49;15.00;99.70
14755;DHT22;7469;50.906;6.952;2023-04-25T08:49:20;15.10;99.00
14755;DHT22;7469;50.906;6.952;2023-04-25T08:51:50;15.20;98.70
14755;DHT22;7469;50.906;6.952;2023-04-25T08:54:21;15.40;98.10
14755;DHT22;7469;50.906;6.952;2023-04-25T08:57:02;15.60;97.60
14755;DHT22;7469;50.906;6.952;2023-04-25T08:59:33;15.60;96.50
14755;DHT22;7469;50.906;6.952;2023-04-25T09:02:04;15.60;95.80
14755;DHT22;7469;50.906;6.952;2023-04-25T09:04:33;15.50;95.40
14755;DHT22;7469;50.906;6.952;2023-04-25T09:07:03;15.30;95.10
14755;DHT22;7469;50.906;6.952;2023-04-25T09:09:31;15.20;95.00
14755;DHT22;7469;50.906;6.952;2023-04-25T09:12:00;14.90;94.80
14755;DHT22;7469;50.906;6.952;2023-04-25T09:14:28;14.60;94.80
14755;DHT22;7469;50.906;6.952;2023-04-25T09:17:01;14.40;94.80
14755;DHT22;7469;50.906;6.952;2023-04-25T09:19:31;14.10;94.80
14755;DHT22;7469;50.906;6.952;2023-04-25T09:22:04;13.90;94.90
14755;DHT22;7469;50.906;6.952;2023-04-25T09:24:34;13.70;95.20
14755;DHT22;7469;50.906;6.952;2023-04-25T09:27:06;13.60;95.30
14755;DHT22;7469;50.906;6.952;2023-04-25T09:29:36;13.30;95.10
14755;DHT22;7469;50.906;6.952;2023-04-25T09:32:15;13.20;95.00
14755;DHT22;7469;50.906;6.952;2023-04-25T09:34:45;13.00;94.90
14755;DHT22;7469;50.906;6.952;2023-04-25T09:37:21;12.90;94.90
14755;DHT22;7469;50.906;6.952;2023-04-25T09:39:52;12.70;94.80
14755;DHT22;7469;50.906;6.952;2023-04-25T09:42:22;12.60;95.30
14755;DHT22;7469;50.906;6.952;2023-04-25T09:44:52;12.60;95.20
14755;DHT22;7469;50.906;6.952;2023-04-25T09:47:22;12.70;95.30
14755;DHT22;7469;50.906;6.952;2023-04-25T09:49:51;12.80;95.40
14755;DHT22;7469;50.906;6.952;2023-04-25T09:52:22;12.90;95.40
14755;DHT22;7469;50.906;6.952;2023-04-25T09:54:52;12.90;95.20
14755;DHT22;7469;50.906;6.952;2023-04-25T09:57:21;12.90;95.10
14755;DHT22;7469;50.906;6.952;2023-04-25T09:59:50;12.80;95.00
14755;DHT22;7469;50.906;6.952;2023-04-25T10:02:22;12.70;95.00
14755;DHT22;7469;50.906;6.952;2023-04-25T10:04:51;12.80;95.00
14755;DHT22;7469;50.906;6.952;2023-04-25T10:07:23;12.90;95.00
14755;DHT22;7469;50.906;6.952;2023-04-25T10:09:59;13.10;94.80
14755;DHT22;7469;50.906;6.952;2023-04-25T10:12:29;13.20;94.40
14755;DHT22;7469;50.906;6.952;2023-04-25T10:14:58;13.10;94.10
14755;DHT22;7469;50.906;6.952;2023-04-25T10:17:27;12.90;94.00
14755;DHT22;7469;50.906;6.952;2023-04-25T10:19:55;12.80;94.10
14755;DHT22;7469;50.906;6.952;2023-04-25T10:22:31;12.60;94.20
14755;DHT22;7469;50.906;6.952;2023-04-25T10:25:00;12.40;94.30
14755;DHT22;7469;50.906;6.952;2023-04-25T10:27:30;12.10;94.70
14755;DHT22;7469;50.906;6.952;2023-04-25T10:30:03;11.90;95.00
14755;DHT22;7469;50.906;6.952;2023-04-25T10:32:33;11.80;95.20
14755;DHT22;7469;50.906;6.952;2023-04-25T10:35:11;11.70;95.50
14755;DHT22;7469;50.906;6.952;2023-04-25T10:37:56;11.60;95.60
14755;DHT22;7469;50.906;6.952;2023-04-25T10:40:25;11.60;95.70
14755;DHT22;7469;50.906;6.952;2023-04-25T10:42:53;11.60;95.90
14755;DHT22;7469;50.906;6.952;2023-04-25T10:45:21;11.70;96.10
14755;DHT22;7469;50.906;6.952;2023-04-25T10:47:49;11.80;96.10
14755;DHT22;7469;50.906;6.952;2023-04-25T10:50:18;12.00;96.20
14755;DHT22;7469;50.906;6.952;2023-04-25T10:52:47;13.20;97.00
14755;DHT22;7469;50.906;6.952;2023-04-25T10:55:15;15.90;95.50
14755;DHT22;7469;50.906;6.952;2023-04-25T10:57:44;17.90;91.60
14755;DHT22;7469;50.906;6.952;2023-04-25T11:00:16;18.30;85.20
14755;DHT22;7469;50.906;6.952;2023-04-25T11:02:46;18.00;80.20
14755;DHT22;7469;50.906;6.952;2023-04-25T11:05:23;17.40;78.00
14755;DHT22;7469;50.906;6.952;2023-04-25T11:07:55;16.70;78.00
14755;DHT22;7469;50.906;6.952;2023-04-25T11:10:44;16.00;78.30
14755;DHT22;7469;50.906;6.952;2023-04-25T11:13:12;15.30;79.60
14755;DHT22;7469;50.906;6.952;2023-04-25T11:15:41;14.70;80.80
14755;DHT22;7469;50.906;6.952;2023-04-25T11:18:09;14.30;82.00
14755;DHT22;7469;50.906;6.952;2023-04-25T11:20:36;14.00;82.80
14755;DHT22;7469;50.906;6.952;2023-04-25T11:23:06;13.70;83.50
14755;DHT22;7469;50.906;6.952;2023-04-25T11:25:34;13.40;84.50
14755;DHT22;7469;50.906;6.952;2023-04-25T11:28:04;13.20;84.50
14755;DHT22;7469;50.906;6.952;2023-04-25T11:30:32;12.90;84.60
14755;DHT22;7469;50.906;6.952;2023-04-25T11:33:01;12.80;84.60
14755;DHT22;7469;50.906;6.952;2023-04-25T11:35:30;12.70;84.40
14755;DHT22;7469;50.906;6.952;2023-04-25T11:38:02;12.60;84.00
14755;DHT22;7469;50.906;6.952;2023-04-25T11:40:31;12.60;84.10
14755;DHT22;7469;50.906;6.952;2023-04-25T11:43:00;12.70;83.80
14755;DHT22;7469;50.906;6.952;2023-04-25T11:45:28;12.80;84.00
14755;DHT22;7469;50.906;6.952;2023-04-25T11:47:57;13.10;84.30
14755;DHT22;7469;50.906;6.952;2023-04-25T11:50:28;13.50;83.90
14755;DHT22;7469;50.906;6.952;2023-04-25T11:52:56;13.80;83.40
14755;DHT22;7469;50.906;6.952;2023-04-25T11:55:24;14.10;82.90
14755;DHT22;7469;50.906;6.952;2023-04-25T11:57:54;14.30;82.30
14755;DHT22;7469;50.906;6.952;2023-04-25T12:00:23;14.50;82.10
14755;DHT22;7469;50.906;6.952;2023-04-25T12:02:53;14.60;81.60
14755;DHT22;7469;50.906;6.952;2023-04-25T12:05:24;14.80;81.20
14755;DHT22;7469;50.906;6.952;2023-04-25T12:08:10;15.00;80.30
14755;DHT22;7469;50.906;6.952;2023-04-25T12:10:41;15.10;79.50
14755;DHT22;7469;50.906;6.952;2023-04-25T12:13:22;15.20;77.80
14755;DHT22;7469;50.906;6.952;2023-04-25T12:15:50;15.10;75.70
14755;DHT22;7469;50.906;6.952;2023-04-25T12:18:24;15.00;74.50
14755;DHT22;7469;50.906;6.952;2023-04-25T12:20:52;14.90;73.20
14755;DHT22;7469;50.906;6.952;2023-04-25T12:23:25;14.80;72.90
14755;DHT22;7469;50.906;6.952;2023-04-25T12:25:55;14.80;72.20
14755;DHT22;7469;50.906;6.952;2023-04-25T12:28:25;14.80;71.90
14755;DHT22;7469;50.906;6.952;2023-04-25T12:30:56;14.80;71.10
14755;DHT22;7469;50.906;6.952;2023-04-25T12:33:25;14.90;71.30
14755;DHT22;7469;50.906;6.952;2023-04-25T12:35:53;15.00;71.80
14755;DHT22;7469;50.906;6.952;2023-04-25T12:38:22;15.20;71.70
14755;DHT22;7469;50.906;6.952;2023-04-25T12:40:51;15.50;71.40
14755;DHT22;7469;50.906;6.952;2023-04-25T12:43:19;15.70;70.00
14755;DHT22;7469;50.906;6.952;2023-04-25T12:45:49;15.80;69.80
14755;DHT22;7469;50.906;6.952;2023-04-25T12:48:18;16.00;68.80
14755;DHT22;7469;50.906;6.952;2023-04-25T12:50:46;16.00;67.50
14755;DHT22;7469;50.906;6.952;2023-04-25T12:53:16;16.00;67.20
14755;DHT22;7469;50.906;6.952;2023-04-25T12:55:45;15.90;66.20
14755;DHT22;7469;50.906;6.952;2023-04-25T12:58:13;15.70;65.20
14755;DHT22;7469;50.906;6.952;2023-04-25T13:00:41;15.50;65.30
14755;DHT22;7469;50.906;6.952;2023-04-25T13:03:11;15.30;65.60
14755;DHT22;7469;50.906;6.952;2023-04-25T13:05:40;15.10;65.90
14755;DHT22;7469;50.906;6.952;2023-04-25T13:08:08;14.80;65.70
14755;DHT22;7469;50.906;6.952;2023-04-25T13:10:38;14.50;66.00
14755;DHT22;7469;50.906;6.952;2023-04-25T13:13:06;14.20;65.80
14755;DHT22;7469;50.906;6.952;2023-04-25T13:15:35;13.90;66.30
14755;DHT22;7469;50.906;6.952;2023-04-25T13:18:03;13.70;67.00
14755;DHT22;7469;50.906;6.952;2023-04-25T13:20:33;13.60;67.60
14755;DHT22;7469;50.906;6.952;2023-04-25T13:23:01;13.50;68.00
14755;DHT22;7469;50.906;6.952;2023-04-25T13:25:29;13.50;67.80
14755;DHT22;7469;50.906;6.952;2023-04-25T13:27:57;13.40;68.20
14755;DHT22;7469;50.906;6.952;2023-04-25T13:30:25;13.50;68.60
14755;DHT22;7469;50.906;6.952;2023-04-25T13:32:54;13.50;68.10
14755;DHT22;7469;50.906;6.952;2023-04-25T13:35:23;13.50;68.10
14755;DHT22;7469;50.906;6.952;2023-04-25T13:37:53;13.50;67.80
14755;DHT22;7469;50.906;6.952;2023-04-25T13:40:21;13.50;67.80
14755;DHT22;7469;50.906;6.952;2023-04-25T13:42:51;13.50;67.60
14755;DHT22;7469;50.906;6.952;2023-04-25T13:45:19;13.50;67.10
14755;DHT22;7469;50.906;6.952;2023-04-25T13:47:48;13.60;66.70
14755;DHT22;7469;50.906;6.952;2023-04-25T13:50:16;13.70;66.50
14755;DHT22;7469;50.906;6.952;2023-04-25T13:52:44;13.80;66.00
14755;DHT22;7469;50.906;6.952;2023-04-25T13:55:14;14.00;65.80
14755;DHT22;7469;50.906;6.952;2023-04-25T13:57:41;14.20;65.20
14755;DHT22;7469;50.906;6.952;2023-04-25T14:00:11;14.20;64.40
14755;DHT22;7469;50.906;6.952;2023-04-25T14:02:39;14.20;63.30
14755;DHT22;7469;50.906;6.952;2023-04-25T14:05:08;14.20;62.30
14755;DHT22;7469;50.906;6.952;2023-04-25T14:07:36;14.20;61.60
14755;DHT22;7469;50.906;6.952;2023-04-25T14:10:05;14.40;61.00
14755;DHT22;7469;50.906;6.952;2023-04-25T14:12:34;14.50;60.80
14755;DHT22;7469;50.906;6.952;2023-04-25T14:15:03;14.70;60.10
14755;DHT22;7469;50.906;6.952;2023-04-25T14:17:31;14.80;58.50
14755;DHT22;7469;50.906;6.952;2023-04-25T14:19:59;14.80;57.00
14755;DHT22;7469;50.906;6.952;2023-04-25T14:22:27;14.80;57.10
14755;DHT22;7469;50.906;6.952;2023-04-25T14:24:55;14.80;57.00
14755;DHT22;7469;50.906;6.952;2023-04-25T14:27:23;14.70;56.90
14755;DHT22;7469;50.906;6.952;2023-04-25T14:29:56;14.50;56.80
14755;DHT22;7469;50.906;6.952;2023-04-25T14:32:24;14.40;57.20
14755;DHT22;7469;50.906;6.952;2023-04-25T14:34:52;14.20;57.60
14755;DHT22;7469;50.906;6.952;2023-04-25T14:37:20;14.10;58.00
14755;DHT22;7469;50.906;6.952;2023-04-25T14:39:48;14.00;57.90
14755;DHT22;7469;50.906;6.952;2023-04-25T14:42:16;13.90;58.00
14755;DHT22;7469;50.906;6.952;2023-04-25T14:44:44;13.80;57.10
14755;DHT22;7469;50.906;6.952;2023-04-25T14:47:13;13.80;56.90
14755;DHT22;7469;50.906;6.952;2023-04-25T14:49:42;13.70;56.40
14755;DHT22;7469;50.906;6.952;2023-04-25T14:52:10;13.70;56.10
14755;DHT22;7469;50.906;6.952;2023-04-25T14:54:38;13.70;56.10
14755;DHT22;7469;50.906;6.952;2023-04-25T14:57:06;13.60;55.80
14755;DHT22;7469;50.906;6.952;2023-04-25T14:59:34;13.40;55.00
14755;DHT22;7469;50.906;6.952;2023-04-25T15:02:02;13.40;54.60
14755;DHT22;7469;50.906;6.952;2023-04-25T15:04:32;13.40;55.10
14755;DHT22;7469;50.906;6.952;2023-04-25T15:07:00;13.50;56.00
14755;DHT22;7469;50.906;6.952;2023-04-25T15:09:28;13.60;56.20
14755;DHT22;7469;50.906;6.952;2023-04-25T15:11:58;13.80;56.50
14755;DHT22;7469;50.906;6.952;2023-04-25T15:14:26;14.00;56.80
14755;DHT22;7469;50.906;6.952;2023-04-25T15:16:54;14.10;56.90
14755;DHT22;7469;50.906;6.952;2023-04-25T15:19:22;14.10;57.00
14755;DHT22;7469;50.906;6.952;2023-04-25T15:21:51;14.10;57.10
14755;DHT22;7469;50.906;6.952;2023-04-25T15:24:20;14.00;56.80
14755;DHT22;7469;50.906;6.952;2023-04-25T15:26:48;14.00;57.10
14755;DHT22;7469;50.906;6.952;2023-04-25T15:29:17;14.00;57.30
14755;DHT22;7469;50.906;6.952;2023-04-25T15:31:45;14.00;57.50
14755;DHT22;7469;50.906;6.952;2023-04-25T15:34:13;14.20;57.90
14755;DHT22;7469;50.906;6.952;2023-04-25T15:36:41;14.40;58.00
14755;DHT22;7469;50.906;6.952;2023-04-25T15:39:10;14.50;57.40
14755;DHT22;7469;50.906;6.952;2023-04-25T15:41:38;14.60;57.30
14755;DHT22;7469;50.906;6.952;2023-04-25T15:44:07;14.60;57.20
14755;DHT22;7469;50.906;6.952;2023-04-25T15:46:37;14.60;57.00
14755;DHT22;7469;50.906;6.952;2023-04-25T15:49:05;14.70;57.20
14755;DHT22;7469;50.906;6.952;2023-04-25T15:51:34;14.70;57.10
14755;DHT22;7469;50.906;6.952;2023-04-25T15:54:02;14.80;57.30
14755;DHT22;7469;50.906;6.952;2023-04-25T15:56:31;14.80;57.10
14755;DHT22;7469;50.906;6.952;2023-04-25T15:59:00;14.70;56.70
14755;DHT22;7469;50.906;6.952;2023-04-25T16:01:27;14.70;57.00
14755;DHT22;7469;50.906;6.952;2023-04-25T16:03:57;14.60;57.50